»·PEaware :: N427LJ KSAC-KAPC

N427LJ :: KSAC-KAPC

FLIGHT INFORMATION

Flight Status: Arrived
Operator: Privately registered:
United States
More flights under this callsign
Pilot: Anonymous 27948 (27948)
Aircraft: CESSNA 172 SKYHAWK
(C172)
More flights by this aircraft type
Origin: KSAC Sacramento Executive
United States
Destination: KAPC Napa Co
United States
More flights between these airports :: More routes between these airports
Route: +SAC V494 STS
File this flight plan on PilotEdge
Remarks:
Altitude:
(Current/Filed)
6,000ft
Speed:
(Current/Filed)
120kts
Departed: 13-Jun-20 11:04 AM
Arrived: 13-Jun-20 11:54 AM
Distance/Time
Traveled:
41nm/0:50
Distance/Time
To Go:
Arrived

Flight Plot

Page will automatically refresh every two minutes.

Flight plan parsing failed; only flown route is shown


Map Options




Map Legend


Flown Route
Filed Route
Departure Airport
Arrival Airport
Navaid (VOR, NDB)
Fix

Horizontal Profiles

Position Reports

Time Latitude Longitude Heading Altitude Ground
Speed
13-Jun-20 10:48 38.512357 -121.497824 213 20ft 0kts
13-Jun-20 10:49 38.512357 -121.497824 213 20ft 0kts
13-Jun-20 10:50 38.512357 -121.497824 213 20ft 0kts
13-Jun-20 10:51 38.512357 -121.497824 213 20ft 0kts
13-Jun-20 10:52 38.512357 -121.497824 213 20ft 0kts
13-Jun-20 10:53 38.512357 -121.497824 213 20ft 0kts
13-Jun-20 10:54 38.512357 -121.497824 213 20ft 0kts
13-Jun-20 10:55 38.512357 -121.497824 213 20ft 0kts
13-Jun-20 10:56 38.512357 -121.497824 213 20ft 0kts
13-Jun-20 10:57 38.512090 -121.496699 33 20ft 13kts
13-Jun-20 10:58 38.515926 -121.493506 31 22ft 12kts
13-Jun-20 10:59 38.518859 -121.491071 33 23ft 1kts
13-Jun-20 11:00 38.519492 -121.490364 103 23ft 0kts
13-Jun-20 11:01 38.519492 -121.490364 103 23ft 0kts
13-Jun-20 11:02 38.519357 -121.490253 148 23ft 0kts
13-Jun-20 11:03 38.516918 -121.491003 213 21ft 51kts
13-Jun-20 11:04 38.500291 -121.505820 210 974ft 75kts
13-Jun-20 11:05 38.481900 -121.519551 212 1870ft 88kts
13-Jun-20 11:06 38.456228 -121.541092 213 1880ft 118kts
13-Jun-20 11:07 38.445785 -121.577827 271 1880ft 116kts
13-Jun-20 11:09 38.447478 -121.618160 274 2038ft 106kts
13-Jun-20 11:10 38.449380 -121.653394 273 2471ft 99kts
13-Jun-20 11:11 38.451227 -121.687775 273 3347ft 97kts
13-Jun-20 11:12 38.453131 -121.722324 273 4137ft 98kts
13-Jun-20 11:13 38.455066 -121.757429 273 4873ft 99kts
13-Jun-20 11:14 38.457005 -121.792791 273 5555ft 100kts
13-Jun-20 11:15 38.459056 -121.830568 273 5883ft 118kts
13-Jun-20 11:16 38.461477 -121.874413 273 5881ft 126kts
13-Jun-20 11:17 38.463880 -121.919113 273 5881ft 126kts
13-Jun-20 11:18 38.466270 -121.963962 273 5881ft 126kts
13-Jun-20 11:19 38.468639 -122.008724 273 5881ft 126kts
13-Jun-20 11:20 38.470995 -122.053559 273 5881ft 126kts
13-Jun-20 11:21 38.473332 -122.098388 273 5881ft 126kts
13-Jun-20 11:22 38.475658 -122.143305 273 5881ft 126kts
13-Jun-20 11:22 38.477579 -122.180671 273 5881ft 126kts
13-Jun-20 11:24 38.462021 -122.225846 229 5640ft 126kts
13-Jun-20 11:25 38.438791 -122.259875 229 5130ft 128kts
13-Jun-20 11:25 38.419809 -122.287680 229 4625ft 120kts
13-Jun-20 11:27 38.394569 -122.324627 229 3928ft 120kts
13-Jun-20 11:28 38.374013 -122.354682 229 3883ft 112kts
13-Jun-20 11:28 38.356143 -122.380801 229 3881ft 119kts
13-Jun-20 11:29 38.334203 -122.412869 229 3881ft 120kts
13-Jun-20 11:30 38.312265 -122.444924 229 3881ft 120kts
13-Jun-20 11:31 38.290227 -122.477117 229 3881ft 120kts
13-Jun-20 11:32 38.268262 -122.509194 229 3881ft 120kts
13-Jun-20 11:33 38.246250 -122.541330 229 3881ft 120kts
13-Jun-20 11:34 38.224297 -122.573370 229 3881ft 120kts
13-Jun-20 11:35 38.202338 -122.605410 229 3881ft 120kts
13-Jun-20 11:36 38.180307 -122.637547 229 3881ft 120kts
13-Jun-20 11:37 38.158281 -122.669666 228 3881ft 120kts
13-Jun-20 11:38 38.136357 -122.701627 228 3881ft 120kts
13-Jun-20 11:39 38.110481 -122.710521 117 3877ft 119kts
13-Jun-20 11:40 38.106501 -122.668517 96 3881ft 120kts
13-Jun-20 11:41 38.102589 -122.628519 96 3546ft 104kts
13-Jun-20 11:42 38.104555 -122.593064 71 3379ft 96kts
13-Jun-20 11:43 38.114687 -122.560568 66 3017ft 109kts
13-Jun-20 11:44 38.126757 -122.525339 65 2479ft 100kts
13-Jun-20 11:45 38.137487 -122.494302 65 2480ft 93kts
13-Jun-20 11:46 38.147926 -122.464045 65 2481ft 93kts
13-Jun-20 11:47 38.158305 -122.433922 65 2481ft 93kts
13-Jun-20 11:48 38.168635 -122.403799 66 2138ft 91kts
13-Jun-20 11:49 38.178933 -122.374098 65 1617ft 93kts
13-Jun-20 11:50 38.189288 -122.343626 67 1065ft 94kts
13-Jun-20 11:51 38.199299 -122.313649 66 515ft 77kts
13-Jun-20 11:52 38.207084 -122.292066 77 115ft 64kts
13-Jun-20 11:53 38.210248 -122.279181 24 19ft 13kts

Navigation Log

Ident Type
Flight plan parsing failed, navigation log unavailable